Airfield :
LOGIN :

Register | Disclaimer

   EN    FR    IT 

 










Legend :    VFR   Marginal VFR   IFR   Intensive IFR   Very Intensive IFR
Visi :
Ceiling :
>= 8 km
>= 3000ft
5 to 8 km
1000 to 3000 ft
1500m to 5 km
500 to 1000 ft
800 to 1500m
200 to 500 ft
< 800m
< 200 ft
Symbols :   Thunderstorms  Fog  Heavy snow  Heavy precipitations  Wind > 20 kt
SIGMETs :     Misc.  Thunderstorms  Icing  Turbulence  Mountain Waves  Volcanic Ashes







- Airport Elevation : 39 ft
- IATA code : ANR


EBAW - Anvers / Antwerpen Deurne

CURRENT METAR :
  • 210820Z 21010KT 9999 SCT010 BKN012 15/13 Q1009 TEMPO BKN009

EXPIRED METARs :
  • 210750Z 21009KT 180V240 9999 SCT010 BKN012 14/12 Q1009 TEMPO BKN009
  • 210720Z 20009KT 9999 SCT010 BKN012 14/12 Q1009 TEMPO BKN009
  • 210650Z 19010KT 9999 -RADZ SCT010 BKN012 13/12 Q1009 TEMPO BKN009
  • 210620Z 19008KT 9999 -RADZ FEW011 BKN013 13/11 Q1009 TEMPO 20015G25KT 4500 RADZ
  • 210550Z 19009KT 7000 -RA FEW012 BKN014 13/11 Q1009 TEMPO 20015G25KT 4500 RADZ

TAF TAF EBAW
Valid from the 21 at 09:00 until the 21 at 18:00 UTC


210802Z 2109/2118 22013KT 9999 SCT015 SCT040
TEMPO 2112/2118 22015G25KT
PROB40
TEMPO 2114/2118 2500 SHRA
No reported NOTAMs for that airfield.



MET'MAP, your aeronautical weather chart ! - Copyright ORBIFLY December 2007 - Disclaimer

ORBIFLY MET'MAP TEAM :

Programming & Development : Alexandra Zaïnal
Concept & Development : Baudouin d'Aumeries
Co-Development & Prog : Marc-Olivier Méhu
Technical & hardware support : Manuel Goepfert

Contact : metmap@orbifly.com




SOURCES & CREDITS :

   NOAA